الصفحة الرئيسية
METAR-TAF:

METAR-TAF

مطار :

بيكوس, تكساس, الولايات المتحدة

دائرة عرض: 31-22-56N, خط طول: 103-30-38W, ارتفاع: 796 متر

مراقبة الطقس الحالي

تاريخ ووقت الإصدار 26 دقيقة قبل الساعة 20:10UTC
رياح هادئة
درجة الحرارة 25°درجة مئوية
الرطوبة 22%
ضغط 1013 hPa
الرؤية: 16.1 كم
سماء صافية

METAR: KPEQ 192010Z AUTO 00000KT 10SM CLR 25/02 A2991 RMK AO2 T02530017

زمن: 15:36 (20:36 UTC)

توقعات

تاريخ ووقت الإصدار 3ساعات و 16 دقيقة قبل الساعة 17:20UTC
التوقعات صالحة من19 الساعة 18 UTC إلى 20 الساعة 18 UTC
ريح 9 عقدة من الشمال/الشمال الغربي
الرؤية: 10 كم
سماء صافية
من 20 الساعة 0000 UTC
ريح 4 عقدة من الجنوب/الجنوب الشرقي
الرؤية: 10 كم
سماء صافية

TAF: KPEQ 191720Z 1918/2018 33009KT P6SM SKC FM200000 16004KT P6SM SKC

أرصاد الطقس والتوقعات من أكثر من 4000 مطار (تقارير الطقس للمطار METAR والتنبؤ بالطقس بالمطارTAF).

المحطات المتاحة هي النقط الصفراء والحمراء على الخريطة.

حرك المؤشر فوق النقطة لمعرفة اسم المحطة.

ثم انقر لمعرفة أرصاد وتوقعات الطقس.

لتغيير الخارطة: اضغط على الأزرار الخضراء مع رمز الصليب الأسود للتكبير. على الزر الأخضر مع شرطة للتصغير، أو على الأسهم الخضراء للخرائط المجاورة.


METAR-TAF: